Donnington, United Kingdom
Current Conditions -  °F | °C
As of 8:50 PM on Tuesday 27 Jan 2015 (Local Time) from EGVN Reporting Station
Broken Clouds Broken Clouds  
Wind Chill: 40°   Ceiling: 2600
Heat Index: 43°   Visibility: 6mi
Dew Point: 37°   Wind: 5mph
Humidity: 81%   Direction: 220°SW
Pressure: 30.15"   Gusts: NA
Location:  51.95°N, 1.72°W
Report Text: EGVN 272050Z 22004KT 9999 BKN026 06/03 Q1021 NOSIG
Loading
Personal Weather Stations






























Interactive Weather Map New forecast layout! Learn more

10-Day Weather Forecast

Advertisements
Track Severe Weather on mobile